Subscribe: פורום מזג האוויר
http://www.tapuz.co.il/tapuzforum/main/rss.asp?forum=393
Preview: פורום מזג האוויר

פורום מזג האוויר



הודעות אחרונות בפורומים



Published: Sun, 18 Feb 2018 07:53:30 GMT

Last Build Date: Sun, 18 Feb 2018 07:53:30 GMT

Copyright: Copyright 2018 Tapuz All Rights Reserved.
 



אז ...מה קרה לכל התחזיות?

Sun, 18 Feb 2018 07:50:00 GMT

להודעה זו אין תגובות

מאת: mbarak22
כל התחזיות שצפו בוקר של סופות רעמים וגשמים חזקים שיירדו עד לשעות אחר הצהריים. כולם טעו בגדול. בגדול!
המכם התנקה כבר אמש מעננים והשאיר את רוב האזורים יבש.




נצרת 81.8 מ"מ למערכת 120.4 לפברואר 497.6 עונתי (image)

Sun, 18 Feb 2018 06:49:00 GMT

להודעה זו יש 3 תגובות

מאת: Andrew Farah
קישור לתחנה שלי בנצרת
http://nazarethweather.ueuo.com/public_html/Current_Vantage.htm




(image) ק. מזרע 13.3 מ"צ 83% בשעה 06:00 רוח מערבית

Sun, 18 Feb 2018 06:20:00 GMT

להודעה זו יש תגובה אחת

מאת: askaba
ללא תוכן



לפי מודל קוסמו ודני רופ מחצות הלילה הכל מאחורינו

Sat, 17 Feb 2018 21:36:00 GMT

להודעה זו יש 20 תגובות

מאת: dechessmaster
גם לפי המכ"ם ודני רופ שהציג את מודל קוסמו הוא אמר וראו שבחצות ואחרי חצות זהו הכל מתחיל להתנקות ונגמר כמעט לחלוטין. המכ"ם עכשיו כבר ככה נראה מהצהריים ואומנם יש קו עננות יותר מפותח בים אבל הכל מאוד דק וקצר ויעבור מהר. קיוויתי למשהו רציני יותר וארוך הרבה יותר הלילה ומחר
 
דרך אגב גם בתצ"ל לא רואים משהו מיוחד מתפתח בים הכל דק ונראה שיעבור מהר. אולי איזה פיק לכמה דקות.
 
נקווה שרופ וקוסמו טועים.




מישהו יכול לצרף טבלת כמות מ"מ מהלילה עד עכשיו?

Sat, 17 Feb 2018 19:47:00 GMT

להודעה זו אין תגובות

מאת: קרקל1
ללא תוכן



עידכון ערב- לקראת חמישי צפוי להגיע שקע שרבי

Sat, 17 Feb 2018 18:55:00 GMT

להודעה זו יש 4 תגובות

מאת: הפרבולה
הטמפ יעלו ( לא משהו קיצוני  כ 10-15 מעלות ב 850 מב )  וינשבו רוחות מזרחיות - כרגע נראה שבשישי הבא השרב ישבר עם  מערכת גשם חלשה . האפיק  המרכזי נשאר בנתיים במרכז אירופה.
 
 
 




צבעים מדהימים מילאו חסרונו של גשם

Sat, 17 Feb 2018 17:44:00 GMT

להודעה זו אין תגובות

מאת: שמוליק שמואלי




חדש- דף רשמי ביוטיוב לאתר מזג האוויר בישראל

Sat, 17 Feb 2018 08:05:00 GMT

להודעה זו אין תגובות

מאת: בועז ד
בוקר טוב לכולם.
היום וביום ראשון צפויים גשמים חזקים מצפון הארץ-צפון הנגב עם סכנת שיטפונות בכל הנחלים והוואדיות. אתר
מזג האוויר בישראל גאה להציג את דף מזג האוויר ביוטיוב. אשמח לקבל מכם סרטוני שיטפונות מעכשיו ומעבר. קרדיט ינתן כמובן לצלם. נא לשלוח את הסרטונים למייל boazweather@gmail.com. מצורף הדף החדש . תודה מראש על שיתוף הפעולה. תוכלו גם להירשם כמנויים בדף.

https://www.youtube.com/channel/UCY7YtwvkEzk-poiQ5hgo5vA/featured

תודה מראש

בועז




(image) (image) ברק הלילה בירושלים(image) (image)

Sat, 17 Feb 2018 05:54:00 GMT

להודעה זו יש 17 תגובות

מאת: m70
אמנם רב הזמן ירושלים שוב קופחה כולל ברגעים אלה,אבל בין השעות שתים וחצי לשלוש בלילה היתה פה הצגה מטורפת. בעיקר במזרח העיר:

https://www.flickr.com/photos/54302606@N07/38500930610/in/dateposted-public/






תמונת מצב: האטמוספירה עצבנית מתמיד:(image)

Sat, 17 Feb 2018 04:02:00 GMT

להודעה זו אין תגובות

מאת: דניאלסופר34
הרבה ס"ר (מלוות בעיקר בגשם קל-בינוני) מפוזרות ברחבי הארץ.
זה זמנם של חובבי הס"ר לצלם ולהנות מפעילות חשמלית מדהימה.
רואים במכם שאיזור עזה חוטף כהוגן כעת, התחזקות משמעותית לקראת בוקר ולאחר מכן הפוגה לאחר התחדשות הגשמים וגל נוסף בליל מוצ"ש.
 




דיווחים: תחילת המערכת. בדרום גשמים חזקים

Fri, 16 Feb 2018 21:48:00 GMT

להודעה זו יש 53 תגובות

מאת: dechessmaster
אפשר לראות כבר עכשיו התפתחויות בדרום באופן מקומי גשמים חזקים מאוד.
ובאנימציה רואים שהעננות מתפשטת מהר צפונה.
 
 




תחזית תעופתית TAF עד 2 בצהרים מחר. אפשרות לגשם מדן ועד אילת

Fri, 16 Feb 2018 16:13:00 GMT

להודעה זו יש תגובה אחת

מאת: tcu6


הטא"ף של השמ"ט ותקף עד מחר, שבת, בשעה 2 בצהרים.

ראש פינה
TAF LLIB 161125Z 1612/1712 08010KT 6000 NSC
 BECMG 1613/1615 04008KT 9999 SCT040
 FM161900 VRB04KT 9999 SCT030
 PROB40 1619/1712 27012KT 5000 TSRA BR SCT010 FEW025CB BKN030 TX20/1612Z TN11/1704Z

סיכוי של 40 % לגשם מלווה בס"ר בין 9 בערב ל2 בצהרים בשבת. מעט ענני סערה. רוח מערבית מתונה.

מפרץ חיפה
TAF LLHA 161122Z 1612/1712 26008KT 7000 FEW025
 TEMPO 1612/1615 13010KT
 BECMG 1615/1617 VRB04KT 9999 SCT025
 TEMPO 1617/1709 22015KT 5000 +TSRA FEW020CB BKN025
 FM170900 24008KT 9999 SCT025
 PROB40 1709/1712 24015KT 5000 +TSRA FEW020CB BKN025 TX21/1612Z TN14/1704Z
זמנית בין 7 בערב ל11 בבוקר ביום שבת ירד מדי פעם גשם חזק וס"ר, מעט ענני סערה, רוח דר-מערבית 15 קשר.
סיכוי של 40% שזמנית בין 11 ל2 בצהרים בשבת ימשיך לרדת גשם חזק מדי פעם מלווה בס"ר, מעט ענני סערה, רוח מע-דר-מערבית 15 קשר.

שדה דב
TAF LLSD 161120Z 1612/1712 26008KT 7000 FEW025
 BECMG 1615/1617 VRB04KT 9999 SCT025
 TEMPO 1617/1709 22015KT 5000 +TSRA FEW018CB BKN025
 FM170900 24010KT 9999 SCT025
 PROB40 1709/1712 27016KT 5000 +TSRA FEW018CB BKN025 TX19/1612Z TN12/1704Z
דומה לפירוט עבור מפרץ חיפה.

בן גוריון
TAF LLBG 161112Z 1612/1712 26008KT 7000 FEW025
 BECMG 1615/1617 VRB04KT 9999 SCT025
 TEMPO 1617/1709 22015KT 5000 +TSRA FEW018CB BKN025
 FM170900 24010KT 9999 SCT025
 PROB40 1709/1712 5000 +TSRA FEW018CB BKN025 TX20/1612Z TN11/1704Z
דומה לפירוט עבור מפרץ חיפה.

אילת
TAF LLET 161114Z 1612/1712 19008KT CAVOK
 TEMPO 1612/1613 04006KT
 BECMG 1619/1621 VRB04KT 9999 FEW040
 PROB30 1621/1708 22015KT 5000 TSRA FEW035CB BKN040
 FM170800 28006KT 7000 SCT040
 PROB30 1708/1712 22015KT 5000 TSRA FEW035CB BKN040 TX23/1612Z TN13/1704Z
סיכוי נמוך 30%, לגשם מדי פעם מלווה בס"ר. מעט ענני סערה . מחצות הלילה ועד ל2 בצהרים בשבת, סיום התחזית.
 


.





האנסמבל רומז על מערכת אפשרית בסביבת ה-27 לחודש

Fri, 16 Feb 2018 09:56:00 GMT

להודעה זו יש 41 תגובות

מאת: shlomobar
ללא תוכן



עדכון ערב -ICON ממשיך להיות "בסדר"

Thu, 15 Feb 2018 18:19:00 GMT

להודעה זו יש 22 תגובות

מאת: shlomobar
ללא תוכן



שטפונות בראשון בבוקר?

Wed, 14 Feb 2018 13:19:00 GMT

להודעה זו יש 8 תגובות

מאת: משה057
שלום!
אני נוסע לאילת ביום ראשון.
מישהו רוצה לתת ניחוש מושכל איפה יש סיכוי לתפוס איזה שיטפון בדרך?